Time;durP1;ratioP1;P1;durP2;ratioP2;P2;SDS_P1;SDS_P2;PMS_P1;PMS_P2;Temp;Humidity;BMP_temperature;BMP_pressure;BME280_temperature;BME280_humidity;BME280_pressure;Samples;Min_cycle;Max_cycle;Signal;HPM_P1;HPM_P2
2023/10/03 00:00:56;;;;;;;9.90;4.07;;;;;;;12.63;87.68;100853.31;6298109;28;20056;-73
2023/10/03 00:03:59;;;;;;;8.25;3.75;;;;;;;12.64;87.66;100849.78;6297884;28;20064;-72
2023/10/03 00:07:01;;;;;;;8.63;3.72;;;;;;;12.58;87.85;100849.25;6298634;28;20052;-72
2023/10/03 00:10:02;;;;;;;9.50;3.90;;;;;;;12.52;88.34;100845.22;6298500;28;20484;-74
2023/10/03 00:13:07;;;;;;;10.45;4.63;;;;;;;12.45;89.24;100852.56;6298740;28;20135;-74
2023/10/03 00:16:08;;;;;;;7.72;3.45;;;;;;;12.41;89.37;100840.56;6297334;28;20048;-73
2023/10/03 00:19:09;;;;;;;8.02;3.92;;;;;;;12.50;88.92;100844.47;6298099;28;20062;-72
2023/10/03 00:22:10;;;;;;;7.95;3.80;;;;;;;12.47;88.44;100832.38;6297167;28;20061;-72
2023/10/03 00:25:19;;;;;;;7.15;4.10;;;;;;;12.52;87.67;100842.63;6297351;28;20052;-72
2023/10/03 00:28:22;;;;;;;9.13;4.43;;;;;;;12.55;86.88;100839.81;6298045;28;20121;-74
2023/10/03 00:31:26;;;;;;;11.45;4.25;;;;;;;12.59;86.79;100836.09;6298342;28;20052;-72
2023/10/03 00:34:27;;;;;;;6.97;4.00;;;;;;;12.58;86.78;100837.03;6296718;28;20395;-73
2023/10/03 00:37:29;;;;;;;9.18;4.10;;;;;;;12.64;86.57;100838.44;6296912;28;20052;-74
2023/10/03 00:40:31;;;;;;;6.90;3.60;;;;;;;12.51;87.73;100830.44;6296863;28;20056;-72
2023/10/03 00:43:32;;;;;;;6.97;3.38;;;;;;;12.45;88.36;100834.25;6303736;28;20059;-74
2023/10/03 00:46:33;;;;;;;4.82;3.13;;;;;;;12.44;88.85;100829.13;6322091;28;20065;-73
2023/10/03 00:49:38;;;;;;;8.30;3.58;;;;;;;12.44;89.81;100826.50;6321860;28;20800;-72
2023/10/03 00:52:42;;;;;;;8.73;3.65;;;;;;;12.41;89.81;100832.72;6322582;28;20079;-74
2023/10/03 00:55:44;;;;;;;6.57;3.28;;;;;;;12.44;89.85;100844.81;6321961;28;20094;-73
2023/10/03 00:58:45;;;;;;;6.18;3.42;;;;;;;12.49;89.78;100840.16;6322291;28;20415;-73
2023/10/03 01:01:46;;;;;;;7.45;2.83;;;;;;;12.50;90.34;100827.00;6322310;28;20058;-73
2023/10/03 01:04:49;;;;;;;5.68;3.60;;;;;;;12.60;90.76;100823.84;6322732;28;20051;-74
2023/10/03 01:07:50;;;;;;;8.07;3.40;;;;;;;12.68;91.47;100840.81;6321173;28;20043;-73
2023/10/03 01:10:51;;;;;;;10.90;3.80;;;;;;;12.75;93.07;100832.59;6321536;28;20048;-74
2023/10/03 01:14:00;;;;;;;6.05;3.20;;;;;;;12.75;92.96;100836.06;6320739;28;20727;-73
2023/10/03 01:17:03;;;;;;;10.75;4.50;;;;;;;12.86;93.24;100832.81;6322506;28;20052;-73
2023/10/03 01:20:10;;;;;;;9.13;4.13;;;;;;;12.92;93.34;100823.75;6322015;28;20139;-72
2023/10/03 01:23:14;;;;;;;10.63;4.30;;;;;;;13.03;92.14;100822.22;6322097;28;20488;-73
2023/10/03 01:26:15;;;;;;;7.50;4.00;;;;;;;13.05;91.85;100829.94;6322180;28;20083;-74
2023/10/03 01:29:16;;;;;;;7.80;3.90;;;;;;;13.06;90.60;100821.19;6321037;28;20097;-73
2023/10/03 01:32:17;;;;;;;8.60;4.18;;;;;;;13.07;90.50;100825.47;6322326;28;20112;-72
2023/10/03 01:35:18;;;;;;;10.10;4.20;;;;;;;13.09;90.74;100818.34;6320847;28;20044;-72
2023/10/03 01:38:20;;;;;;;12.18;4.35;;;;;;;13.13;91.03;100825.09;6321955;28;20055;-72
2023/10/03 01:41:21;;;;;;;7.97;4.05;;;;;;;13.21;89.11;100820.25;6321672;28;20101;-72
2023/10/03 01:44:22;;;;;;;10.52;3.80;;;;;;;13.24;88.40;100813.97;6321900;28;20052;-73
2023/10/03 01:47:24;;;;;;;14.23;4.97;;;;;;;13.28;88.46;100818.09;6322081;28;20059;-72
2023/10/03 01:50:29;;;;;;;10.07;5.00;;;;;;;13.30;87.87;100818.88;6321907;28;20495;-72
2023/10/03 01:53:30;;;;;;;8.23;3.83;;;;;;;13.36;86.84;100823.75;6321280;28;20063;-72
2023/10/03 01:56:31;;;;;;;8.68;4.22;;;;;;;13.37;86.79;100816.75;6321821;28;20047;-74
2023/10/03 01:59:32;;;;;;;9.52;4.30;;;;;;;13.36;85.69;100807.19;6320739;28;20387;-74
2023/10/03 02:02:35;;;;;;;8.90;3.75;;;;;;;13.38;86.33;100811.41;6320814;28;20423;-72
2023/10/03 02:05:39;;;;;;;9.63;3.65;;;;;;;13.40;86.05;100809.53;6321765;28;20056;-73
2023/10/03 02:08:41;;;;;;;9.10;4.20;;;;;;;13.37;85.60;100807.09;6320712;28;20052;-74
2023/10/03 02:11:42;;;;;;;18.77;5.00;;;;;;;13.41;86.78;100813.00;6320643;28;20048;-74
2023/10/03 02:14:43;;;;;;;10.50;4.30;;;;;;;13.43;85.95;100809.34;6321569;28;20048;-74
2023/10/03 02:17:46;;;;;;;11.25;4.78;;;;;;;13.43;85.23;100800.66;6320649;28;20499;-74
2023/10/03 02:21:01;;;;;;;9.05;4.53;;;;;;;13.41;85.54;100811.22;6320443;28;20055;-74
2023/10/03 02:24:02;;;;;;;10.80;4.65;;;;;;;13.46;86.20;100810.94;6320730;28;20048;-74
2023/10/03 02:27:06;;;;;;;8.65;4.47;;;;;;;13.43;85.97;100805.91;6320017;28;20054;-73
2023/10/03 02:30:11;;;;;;;8.30;4.30;;;;;;;13.48;84.96;100806.44;6321790;28;20040;-73
2023/10/03 02:33:16;;;;;;;10.88;4.15;;;;;;;13.52;85.65;100809.72;6321774;28;20048;-72
2023/10/03 02:36:18;;;;;;;9.63;4.55;;;;;;;13.50;85.33;100797.53;6321543;28;20052;-73
2023/10/03 02:39:25;;;;;;;14.95;5.68;;;;;;;13.47;84.39;100802.97;6313823;28;20507;-73
2023/10/03 02:42:26;;;;;;;9.52;4.30;;;;;;;13.57;84.72;100802.41;6323822;28;20556;-73
2023/10/03 02:45:27;;;;;;;8.57;4.00;;;;;;;13.59;84.14;100808.41;6325091;28;20059;-74
2023/10/03 02:48:29;;;;;;;9.52;4.13;;;;;;;13.57;84.69;100794.53;6324666;28;20059;-74
2023/10/03 02:51:32;;;;;;;9.63;3.80;;;;;;;13.53;83.75;100796.53;6325244;28;20067;-73
2023/10/03 02:54:33;;;;;;;7.93;4.03;;;;;;;13.57;84.28;100800.66;6325323;28;20152;-74
2023/10/03 02:57:35;;;;;;;12.65;4.28;;;;;;;13.44;84.40;100797.91;6301454;28;20488;-72
2023/10/03 03:00:37;;;;;;;7.60;4.18;;;;;;;13.58;84.43;100794.44;6312134;28;20478;-72
2023/10/03 03:03:42;;;;;;;7.93;3.95;;;;;;;13.67;83.98;100790.41;6320809;28;20093;-73
2023/10/03 03:06:46;;;;;;;10.40;4.60;;;;;;;13.63;82.81;100800.28;6325396;28;20044;-73
2023/10/03 03:09:47;;;;;;;10.40;3.88;;;;;;;13.67;83.24;100788.66;6325462;28;20044;-72
2023/10/03 03:12:48;;;;;;;8.07;3.67;;;;;;;13.77;82.95;100802.00;6319332;28;20044;-72
2023/10/03 03:15:52;;;;;;;9.40;3.80;;;;;;;13.77;82.45;100798.56;6324124;28;20090;-73
2023/10/03 03:18:53;;;;;;;7.97;3.42;;;;;;;13.67;82.46;100800.91;6324980;28;20549;-74
2023/10/03 03:21:57;;;;;;;8.30;3.60;;;;;;;13.67;81.75;100798.28;6325214;28;20047;-73
2023/10/03 03:24:58;;;;;;;7.65;3.10;;;;;;;13.74;82.18;100801.38;6324931;28;20101;-74
2023/10/03 03:27:59;;;;;;;7.03;3.72;;;;;;;13.74;81.14;100793.50;6324788;28;20063;-74
2023/10/03 03:31:01;;;;;;;6.68;3.40;;;;;;;13.74;81.04;100793.50;6323585;28;20048;-73
2023/10/03 03:34:02;;;;;;;5.88;3.30;;;;;;;13.73;81.19;100792.66;6306106;28;20059;-73
2023/10/03 03:37:21;;;;;;;8.68;3.50;;;;;;;13.74;80.76;100793.50;6298205;28;20405;-73
2023/10/03 03:40:29;;;;;;;13.07;3.70;;;;;;;13.78;80.49;100784.53;6299408;28;20049;-74
2023/10/03 03:43:31;;;;;;;11.38;3.40;;;;;;;13.69;80.64;100786.78;6319010;28;20043;-73
2023/10/03 03:46:32;;;;;;;7.18;3.05;;;;;;;13.68;81.14;100779.84;6323172;28;20135;-74
2023/10/03 03:49:33;;;;;;;7.15;3.28;;;;;;;13.66;80.78;100773.84;6322184;28;20048;-73
2023/10/03 03:52:34;;;;;;;6.57;3.60;;;;;;;13.61;80.97;100773.31;6321798;28;20132;-73
2023/10/03 03:55:36;;;;;;;7.35;3.65;;;;;;;13.53;81.22;100778.19;6324388;28;20052;-72
2023/10/03 03:58:39;;;;;;;8.82;4.03;;;;;;;13.52;81.02;100773.03;6322946;28;20142;-72
2023/10/03 04:01:40;;;;;;;10.75;4.07;;;;;;;13.43;82.48;100777.91;6319875;28;20048;-72
2023/10/03 04:04:40;;;;;;;9.60;3.72;;;;;;;13.43;81.73;100777.06;6320075;28;20052;-72
2023/10/03 04:07:41;;;;;;;6.95;3.55;;;;;;;13.40;81.88;100772.00;6322685;28;20115;-73
2023/10/03 04:10:43;;;;;;;11.48;3.53;;;;;;;13.38;81.43;100774.69;6314708;28;20538;-72
2023/10/03 04:13:50;;;;;;;8.68;3.40;;;;;;;13.49;80.31;100777.53;6322791;28;20052;-72
2023/10/03 04:16:53;;;;;;;9.82;3.45;;;;;;;13.55;81.34;100770.19;6298096;28;20080;-72
2023/10/03 04:19:54;;;;;;;6.63;3.20;;;;;;;13.55;80.72;100765.81;6296026;28;20052;-73
2023/10/03 04:22:55;;;;;;;7.93;3.65;;;;;;;13.55;81.54;100773.69;6297135;28;20048;-72
2023/10/03 04:25:56;;;;;;;6.03;3.17;;;;;;;13.52;81.23;100763.38;6313468;28;20488;-72
2023/10/03 04:29:00;;;;;;;8.03;3.43;;;;;;;13.56;82.22;100777.97;6297094;28;20424;-72
2023/10/03 04:32:03;;;;;;;8.32;3.78;;;;;;;13.56;81.24;100775.34;6297528;28;20056;-72
2023/10/03 04:35:05;;;;;;;11.73;3.72;;;;;;;13.59;81.26;100772.56;6309508;28;20048;-72
2023/10/03 04:38:08;;;;;;;5.93;3.25;;;;;;;13.53;81.65;100778.19;6318372;28;20052;-72
2023/10/03 04:41:11;;;;;;;13.57;3.78;;;;;;;13.53;81.62;100780.81;6315128;28;20058;-72
2023/10/03 04:44:15;;;;;;;10.70;4.25;;;;;;;13.51;82.47;100774.81;6317819;28;20045;-72
2023/10/03 04:47:16;;;;;;;6.50;3.47;;;;;;;13.47;81.92;100781.19;6297374;28;20049;-73
2023/10/03 04:50:25;;;;;;;6.68;3.40;;;;;;;13.53;82.22;100783.44;6296635;28;20055;-72
2023/10/03 04:53:30;;;;;;;9.48;4.25;;;;;;;13.60;81.52;100789.13;6311210;28;20052;-73
2023/10/03 04:56:33;;;;;;;10.27;3.95;;;;;;;13.59;81.56;100795.28;6301926;28;20525;-72
2023/10/03 04:59:39;;;;;;;12.75;3.90;;;;;;;13.68;80.67;100790.31;6299011;28;20052;-72
2023/10/03 05:02:42;;;;;;;10.07;3.90;;;;;;;13.68;80.74;100790.31;6319433;28;20056;-72
2023/10/03 05:05:45;;;;;;;11.57;3.47;;;;;;;13.62;80.80;100782.00;6319696;28;20487;-72
2023/10/03 05:08:46;;;;;;;6.65;3.25;;;;;;;13.69;80.39;100792.03;6320692;28;20408;-72
2023/10/03 05:11:49;;;;;;;8.95;3.58;;;;;;;13.63;81.20;100792.41;6319828;28;20051;-72
2023/10/03 05:14:51;;;;;;;10.77;3.95;;;;;;;13.80;80.13;100793.97;6319736;28;20058;-73
2023/10/03 05:17:54;;;;;;;;;;;;;;;13.84;80.06;100797.25;6321644;28;20048;-72
2023/10/03 05:21:00;;;;;;;4.55;3.08;;;;;;;13.86;80.00;100792.75;6320331;28;20290;-72
2023/10/03 05:24:00;;;;;;;15.00;3.70;;;;;;;13.87;79.21;100781.31;6321450;28;20105;-72
2023/10/03 05:27:03;;;;;;;5.50;3.10;;;;;;;13.89;79.36;100790.75;6320035;28;20454;-72
2023/10/03 05:30:05;;;;;;;12.45;3.60;;;;;;;13.88;79.34;100791.72;6321481;28;20411;-72
2023/10/03 05:33:06;;;;;;;6.25;3.50;;;;;;;13.94;79.59;100797.50;6320478;28;20048;-72
2023/10/03 05:36:13;;;;;;;16.85;2.85;;;;;;;13.96;79.78;100793.84;6321613;28;20075;-72
2023/10/03 05:39:15;;;;;;;7.10;3.75;;;;;;;13.96;79.57;100800.84;6321237;28;20048;-73
2023/10/03 05:42:18;;;;;;;7.60;2.97;;;;;;;13.96;79.09;100803.47;6320178;28;20056;-72
2023/10/03 05:45:19;;;;;;;7.65;3.10;;;;;;;14.02;78.65;100797.84;6320028;28;20054;-72
2023/10/03 05:48:25;;;;;;;12.65;3.45;;;;;;;13.90;78.94;100796.88;6321251;28;20090;-72
2023/10/03 05:51:29;;;;;;;5.55;2.80;;;;;;;14.02;78.73;100798.72;6321132;28;20056;-72
2023/10/03 05:54:32;;;;;;;15.30;3.15;;;;;;;14.16;78.05;100812.72;6319892;28;20389;-73
2023/10/03 05:57:33;;;;;;;5.40;2.88;;;;;;;14.23;78.07;100803.53;6319640;28;20044;-72
2023/10/03 06:00:35;;;;;;;15.85;3.55;;;;;;;14.21;77.54;100810.66;6320072;28;20059;-72
2023/10/03 06:03:36;;;;;;;9.53;3.53;;;;;;;14.25;77.51;100799.84;6321082;28;20048;-72
2023/10/03 06:06:37;;;;;;;8.40;3.30;;;;;;;14.33;77.06;100802.00;6321126;28;20047;-73
2023/10/03 06:09:38;;;;;;;8.00;3.10;;;;;;;14.44;76.80;100796.03;6320817;28;20521;-73
2023/10/03 06:12:39;;;;;;;6.47;3.40;;;;;;;14.41;76.26;100812.84;6320267;28;20089;-73
2023/10/03 06:15:46;;;;;;;14.93;3.17;;;;;;;14.48;75.40;100808.03;6319350;28;20056;-73
2023/10/03 06:18:46;;;;;;;12.70;3.08;;;;;;;14.66;75.43;100813.84;6324041;28;20454;-73
2023/10/03 06:21:47;;;;;;;8.93;2.92;;;;;;;14.53;74.90;100811.16;6324310;28;20097;-73
2023/10/03 06:24:49;;;;;;;14.18;3.95;;;;;;;14.78;74.61;100820.09;6324203;28;20414;-73
2023/10/03 06:27:50;;;;;;;7.85;2.63;;;;;;;14.80;73.88;100815.56;6323890;28;20408;-72
2023/10/03 06:30:52;;;;;;;7.88;3.20;;;;;;;15.13;73.76;100815.09;6324082;28;20062;-73
2023/10/03 06:33:53;;;;;;;7.18;3.78;;;;;;;15.23;73.33;100818.78;6324291;28;20059;-73
2023/10/03 06:36:54;;;;;;;9.20;3.30;;;;;;;15.07;72.40;100820.75;6323958;28;20091;-73
2023/10/03 06:39:54;;;;;;;10.60;3.55;;;;;;;15.18;73.22;100817.44;6324059;28;20048;-73
2023/10/03 06:42:55;;;;;;;12.20;3.17;;;;;;;15.05;73.11;100814.78;6323919;28;20059;-73
2023/10/03 06:45:56;;;;;;;12.70;3.40;;;;;;;15.31;73.37;100823.53;6323733;28;20048;-73
2023/10/03 06:48:58;;;;;;;12.80;3.55;;;;;;;15.54;73.11;100823.72;6325002;28;20411;-73
2023/10/03 06:52:01;;;;;;;;;;;;;;;15.88;72.22;100830.97;6325204;28;20135;-73
2023/10/03 06:55:15;;;;;;;7.80;2.83;;;;;;;16.20;71.71;100825.16;6324691;28;19967;-72
2023/10/03 06:58:16;;;;;;;8.77;3.72;;;;;;;16.26;70.57;100823.88;6324419;28;20062;-73
2023/10/03 07:01:17;;;;;;;11.38;3.35;;;;;;;16.38;68.96;100830.88;6323564;28;20052;-73
2023/10/03 07:04:20;;;;;;;9.77;2.97;;;;;;;16.54;69.40;100824.50;6323354;28;20450;-73
2023/10/03 07:07:21;;;;;;;15.38;3.03;;;;;;;16.50;67.31;100832.63;6323113;28;20491;-73
2023/10/03 07:10:22;;;;;;;8.20;3.90;;;;;;;16.81;67.80;100832.19;6324313;28;20055;-73
2023/10/03 07:13:25;;;;;;;14.85;3.38;;;;;;;16.83;67.47;100830.28;6324514;28;20127;-73
2023/10/03 07:16:30;;;;;;;9.48;3.25;;;;;;;17.02;66.89;100838.47;6324235;28;20044;-73
2023/10/03 07:19:31;;;;;;;6.10;2.85;;;;;;;17.19;65.67;100828.44;6324232;28;20098;-73
2023/10/03 07:22:31;;;;;;;14.13;3.33;;;;;;;17.46;65.43;100834.22;6322904;28;20454;-73
2023/10/03 07:25:32;;;;;;;9.50;3.40;;;;;;;17.62;64.03;100827.75;6323033;28;20052;-74
2023/10/03 07:28:38;;;;;;;12.35;3.20;;;;;;;17.85;63.50;100828.59;6322022;28;20089;-73
2023/10/03 07:31:39;;;;;;;8.77;3.60;;;;;;;17.95;62.29;100834.00;6323746;28;20052;-73
2023/10/03 07:34:43;;;;;;;12.67;3.13;;;;;;;17.97;62.06;100832.06;6324015;28;20048;-73
2023/10/03 07:37:45;;;;;;;5.97;2.88;;;;;;;18.18;61.96;100834.78;6323551;28;20051;-73
2023/10/03 07:40:47;;;;;;;8.15;2.80;;;;;;;18.31;61.42;100833.69;6323866;28;20052;-73
2023/10/03 07:43:47;;;;;;;;;;;;;;;18.57;61.28;100843.91;6324008;28;20051;-74
2023/10/03 07:46:49;;;;;;;7.97;3.28;;;;;;;18.71;60.13;100835.69;6323695;28;19920;-73
2023/10/03 07:49:51;;;;;;;6.43;2.88;;;;;;;18.63;58.92;100827.53;6323234;28;20127;-74
2023/10/03 07:52:52;;;;;;;5.68;2.65;;;;;;;18.80;57.65;100835.91;6322275;28;20055;-73
2023/10/03 07:55:52;;;;;;;6.03;3.10;;;;;;;18.93;57.51;100818.06;6322177;28;20099;-73
2023/10/03 07:58:54;;;;;;;16.15;3.33;;;;;;;19.25;58.41;100825.06;6321803;28;20048;-74
2023/10/03 08:01:55;;;;;;;10.20;3.42;;;;;;;19.31;57.31;100824.53;6322035;28;20052;-73
2023/10/03 08:05:00;;;;;;;8.18;2.55;;;;;;;19.50;56.47;100826.47;6321813;28;20052;-74
2023/10/03 08:08:02;;;;;;;10.82;3.17;;;;;;;19.78;57.95;100827.56;6322978;28;20050;-73
2023/10/03 08:11:07;;;;;;;6.03;2.72;;;;;;;19.91;55.81;100827.31;6322848;28;20051;-73
2023/10/03 08:14:16;;;;;;;10.63;3.20;;;;;;;19.97;54.92;100826.78;6321659;28;20488;-73
2023/10/03 08:17:19;;;;;;;8.07;3.20;;;;;;;20.07;54.08;100824.97;6322786;28;20056;-74
2023/10/03 08:20:20;;;;;;;11.40;2.80;;;;;;;20.41;53.74;100829.09;6322702;28;20052;-73
2023/10/03 08:23:21;;;;;;;10.10;2.75;;;;;;;20.13;52.78;100829.72;6321466;28;20209;-74
2023/10/03 08:26:25;;;;;;;16.05;3.58;;;;;;;20.57;53.60;100833.81;6321535;28;20507;-73
2023/10/03 08:29:26;;;;;;;10.98;2.83;;;;;;;20.73;50.80;100834.13;6322493;28;20123;-74
2023/10/03 08:32:26;;;;;;;7.20;2.70;;;;;;;20.91;52.08;100828.97;6322771;28;20459;-74
2023/10/03 08:35:39;;;;;;;8.50;2.45;;;;;;;20.83;50.51;100815.56;6323072;28;20075;-74
2023/10/03 08:38:43;;;;;;;6.25;2.28;;;;;;;20.95;50.97;100819.75;6320167;28;20039;-74
2023/10/03 08:42:12;;;;;;;10.20;3.20;;;;;;;21.00;49.99;100812.19;6322158;28;20052;-73
2023/10/03 08:45:16;;;;;;;7.57;2.47;;;;;;;21.32;50.06;100811.81;6322364;28;20048;-74
2023/10/03 08:48:17;;;;;;;5.38;2.63;;;;;;;21.38;49.45;100817.53;6322078;28;20102;-73
2023/10/03 08:51:18;;;;;;;9.03;3.07;;;;;;;21.46;48.30;100805.22;6321097;28;20052;-73
2023/10/03 08:54:22;;;;;;;10.00;2.70;;;;;;;21.57;48.66;100811.34;6322059;28;20048;-73
2023/10/03 08:57:23;;;;;;;5.70;2.92;;;;;;;21.94;49.47;100811.28;6322150;28;20130;-74
2023/10/03 09:00:40;;;;;;;6.03;2.80;;;;;;;22.11;47.86;100810.47;6320732;28;20044;-74
2023/10/03 09:03:49;;;;;;;8.50;2.22;;;;;;;22.09;45.94;100809.81;6322014;28;20047;-72
2023/10/03 09:06:51;;;;;;;5.25;2.58;;;;;;;22.40;47.05;100806.78;6320362;28;20450;-72
2023/10/03 09:09:53;;;;;;;12.00;3.13;;;;;;;22.80;46.52;100815.28;6321812;28;20048;-72
2023/10/03 09:13:04;;;;;;;4.15;2.20;;;;;;;22.65;45.35;100812.31;6321579;28;20086;-72
2023/10/03 09:16:08;;;;;;;5.43;2.47;;;;;;;22.72;44.16;100808.06;6320650;28;20243;-72
2023/10/03 09:19:23;;;;;;;9.45;2.83;;;;;;;22.98;44.19;100809.91;6320360;28;20043;-72
2023/10/03 09:22:31;;;;;;;5.38;2.40;;;;;;;23.08;44.39;100808.00;6321684;28;20048;-72
2023/10/03 09:25:34;;;;;;;8.77;2.75;;;;;;;22.88;43.25;100797.53;6321549;28;20135;-73
2023/10/03 09:28:35;;;;;;;7.32;2.63;;;;;;;23.04;43.78;100796.00;6321345;28;20048;-72
2023/10/03 09:31:37;;;;;;;6.03;2.60;;;;;;;23.36;42.74;100795.34;6321298;28;20546;-72
2023/10/03 09:34:40;;;;;;;10.05;2.40;;;;;;;23.59;45.26;100797.44;6320143;28;20051;-72
2023/10/03 09:37:48;;;;;;;7.63;2.90;;;;;;;23.69;43.88;100788.34;6320225;28;20048;-72
2023/10/03 09:40:51;;;;;;;9.05;2.53;;;;;;;23.81;42.46;100794.25;6321201;28;20048;-72
2023/10/03 09:43:53;;;;;;;6.03;2.28;;;;;;;23.61;41.89;100787.47;6320392;28;20063;-72
2023/10/03 09:47:00;;;;;;;13.35;3.00;;;;;;;23.91;42.41;100792.25;6319960;28;20158;-72
2023/10/03 09:50:08;;;;;;;13.02;3.17;;;;;;;24.28;43.32;100790.19;6321881;28;20131;-73
2023/10/03 09:53:15;;;;;;;9.18;3.10;;;;;;;24.11;41.30;100786.63;6326748;28;20074;-73
2023/10/03 09:56:19;;;;;;;8.10;2.63;;;;;;;24.43;41.46;100788.50;6326493;28;20564;-72
2023/10/03 10:30:13;;;;;;;9.10;2.88;;;;;;;24.81;39.95;100745.31;6325525;27;20922;-72
2023/10/03 10:33:23;;;;;;;12.38;2.50;;;;;;;24.99;41.19;100739.78;6309405;28;20049;-72
2023/10/03 10:36:57;;;;;;;7.32;2.55;;;;;;;24.89;40.03;100732.81;6293498;28;20086;-71
2023/10/03 10:40:04;;;;;;;5.38;2.17;;;;;;;24.72;40.36;100729.31;6328961;28;20191;-72
2023/10/03 10:43:11;;;;;;;7.43;2.35;;;;;;;24.99;38.92;100731.78;6316270;28;20105;-72
2023/10/03 10:46:39;;;;;;;15.02;2.40;;;;;;;25.19;41.43;100718.88;6316626;28;20055;-70
2023/10/03 10:49:44;;;;;;;4.40;2.13;;;;;;;25.29;39.73;100724.88;6318128;28;20080;-70
2023/10/03 10:53:05;;;;;;;7.88;2.53;;;;;;;25.35;39.51;100721.50;6314937;28;20127;-70
2023/10/03 10:56:08;;;;;;;10.13;3.03;;;;;;;25.50;38.02;100716.25;6301781;28;20049;-70
2023/10/03 10:59:10;;;;;;;7.47;2.17;;;;;;;25.48;39.03;100704.91;6313548;28;20041;-70
2023/10/03 11:02:17;;;;;;;5.32;2.10;;;;;;;25.47;40.22;100709.41;6317906;28;20048;-70
2023/10/03 11:05:21;;;;;;;5.00;2.10;;;;;;;25.33;39.57;100704.81;6316295;28;20503;-71
2023/10/03 11:08:21;;;;;;;7.63;2.28;;;;;;;25.37;38.94;100705.28;6314333;28;20134;-70
2023/10/03 11:11:35;;;;;;;10.83;2.53;;;;;;;25.59;40.44;100687.63;6316293;28;20058;-70
2023/10/03 11:14:36;;;;;;;15.55;2.58;;;;;;;25.70;40.62;100690.75;6316353;28;20048;-70
2023/10/03 11:17:38;;;;;;;5.90;2.63;;;;;;;25.95;40.38;100682.56;6312684;28;20044;-70
2023/10/03 11:20:39;;;;;;;13.18;2.40;;;;;;;25.85;38.63;100685.44;6316235;28;20556;-69
2023/10/03 11:23:39;;;;;;;5.40;2.17;;;;;;;25.93;38.76;100685.41;6315922;28;20045;-70
2023/10/03 11:26:48;;;;;;;8.10;2.40;;;;;;;26.16;37.76;100675.72;6317118;28;20093;-70
2023/10/03 11:29:49;;;;;;;5.95;2.25;;;;;;;25.73;39.32;100681.53;6210353;28;20144;-70
2023/10/03 11:32:59;;;;;;;11.00;2.78;;;;;;;25.78;38.33;100681.00;6197847;28;20092;-71
2023/10/03 11:36:00;;;;;;;8.48;2.40;;;;;;;25.81;38.38;100672.63;6196100;28;20108;-74
2023/10/03 11:39:01;;;;;;;5.93;2.03;;;;;;;26.16;37.46;100673.88;6197832;28;20452;-72
2023/10/03 11:42:27;;;;;;;5.90;2.20;;;;;;;25.83;37.88;100667.94;6197757;28;20436;-72
2023/10/03 11:45:33;;;;;;;9.63;2.33;;;;;;;26.11;38.58;100658.38;6197849;28;20050;-72
2023/10/03 11:48:34;;;;;;;7.57;2.22;;;;;;;26.19;37.69;100662.84;6197037;28;20046;-72
2023/10/03 11:51:38;;;;;;;4.47;2.30;;;;;;;26.10;38.48;100650.53;6197925;28;20055;-72
2023/10/03 11:54:39;;;;;;;7.40;2.35;;;;;;;26.18;37.80;100644.28;6196279;28;20302;-72
2023/10/03 11:57:40;;;;;;;8.10;1.88;;;;;;;26.22;36.86;100637.56;6197483;28;20478;-72
2023/10/03 12:00:44;;;;;;;8.20;2.22;;;;;;;26.10;38.55;100637.16;6195621;28;20051;-72
2023/10/03 12:03:45;;;;;;;14.40;2.30;;;;;;;26.27;37.67;100643.19;6197811;28;20053;-72
2023/10/03 12:06:46;;;;;;;9.10;2.40;;;;;;;26.29;38.19;100619.75;6196844;28;20060;-72
2023/10/03 12:09:47;;;;;;;7.03;1.83;;;;;;;26.24;38.83;100630.19;6196601;28;20047;-72
2023/10/03 12:12:48;;;;;;;4.27;2.10;;;;;;;26.11;39.23;100618.28;6196221;28;20062;-72
2023/10/03 12:15:49;;;;;;;7.27;2.13;;;;;;;25.96;38.87;100621.91;6196013;28;20421;-72
2023/10/03 12:18:50;;;;;;;5.35;2.05;;;;;;;25.99;38.03;100626.91;6197585;28;20551;-72
2023/10/03 12:21:51;;;;;;;5.53;1.92;;;;;;;25.99;38.99;100613.53;6195413;28;20050;-72
2023/10/03 12:24:52;;;;;;;4.90;2.00;;;;;;;25.84;39.78;100614.31;6198435;28;20046;-72
2023/10/03 12:27:53;;;;;;;8.47;2.50;;;;;;;25.69;39.38;100613.41;6200026;28;20138;-72
2023/10/03 12:30:54;;;;;;;12.95;2.05;;;;;;;25.89;38.73;100603.91;6188713;28;20497;-72
2023/10/03 12:33:58;;;;;;;10.35;2.10;;;;;;;25.99;40.13;100600.19;6200334;28;20073;-72
2023/10/03 12:37:03;;;;;;;5.70;2.25;;;;;;;25.63;38.81;100593.56;6197296;28;20482;-71
2023/10/03 12:40:13;;;;;;;7.30;1.92;;;;;;;25.90;39.89;100592.22;6196348;28;20525;-72
2023/10/03 12:43:16;;;;;;;4.10;1.95;;;;;;;25.99;38.90;100592.16;6196597;28;20050;-72
2023/10/03 12:46:18;;;;;;;3.58;1.65;;;;;;;25.86;38.75;100585.56;6196975;28;20238;-72
2023/10/03 12:49:20;;;;;;;5.25;1.75;;;;;;;25.86;38.28;100588.22;6196825;28;20100;-72
2023/10/03 12:52:21;;;;;;;5.97;2.38;;;;;;;25.89;39.71;100576.34;6195589;28;20046;-72
2023/10/03 12:55:26;;;;;;;7.45;1.75;;;;;;;25.61;39.01;100573.41;6196127;28;20061;-73
2023/10/03 12:58:27;;;;;;;6.53;1.80;;;;;;;25.53;38.15;100560.91;6279777;28;20444;-72
2023/10/03 13:01:28;;;;;;;3.03;1.70;;;;;;;25.63;39.23;100561.50;6194698;28;20100;-72
2023/10/03 13:04:29;;;;;;;4.45;1.65;;;;;;;25.71;40.04;100558.75;6196148;28;20084;-72
2023/10/03 13:07:35;;;;;;;3.87;1.80;;;;;;;25.65;39.13;100559.50;6196032;28;20058;-72
2023/10/03 13:10:38;;;;;;;5.60;1.70;;;;;;;25.47;38.95;100564.31;6196132;28;20455;-72
2023/10/03 13:13:41;;;;;;;8.32;1.67;;;;;;;25.48;38.11;100555.31;6195330;28;20504;-71
2023/10/03 13:16:42;;;;;;;4.93;2.08;;;;;;;25.68;38.94;100561.00;6194866;28;20050;-72
2023/10/03 13:19:43;;;;;;;5.63;1.95;;;;;;;25.67;38.36;100554.78;6196133;28;20054;-72
2023/10/03 13:22:46;;;;;;;5.10;1.75;;;;;;;25.64;40.10;100551.69;6191231;28;20062;-72
2023/10/03 13:25:50;;;;;;;6.13;1.90;;;;;;;25.66;38.18;100545.13;6195736;28;20430;-72
2023/10/03 13:28:53;;;;;;;3.60;1.50;;;;;;;25.60;38.40;100543.19;6195374;28;20057;-72
2023/10/03 13:31:54;;;;;;;4.07;1.88;;;;;;;25.32;38.49;100538.38;6195654;28;20571;-72
2023/10/03 13:34:55;;;;;;;4.65;1.85;;;;;;;25.53;39.02;100531.53;6194957;28;20055;-72
2023/10/03 13:37:56;;;;;;;5.37;1.60;;;;;;;25.56;40.42;100525.84;6194624;28;20054;-72
2023/10/03 13:40:57;;;;;;;;;;;;;;;25.42;39.27;100524.78;6195067;28;20054;-72
2023/10/03 13:43:58;;;;;;;8.30;1.90;;;;;;;25.33;40.33;100517.84;6194196;28;19926;-72
2023/10/03 13:46:59;;;;;;;10.98;2.40;;;;;;;25.19;38.63;100524.75;6194110;28;20426;-72
2023/10/03 13:50:03;;;;;;;8.05;2.05;;;;;;;24.89;38.84;100521.97;6194588;28;20520;-71
2023/10/03 13:53:06;;;;;;;4.00;1.73;;;;;;;24.95;40.20;100512.41;6195421;28;20054;-72
2023/10/03 13:56:07;;;;;;;3.90;1.85;;;;;;;24.95;40.26;100509.72;6202053;28;20058;-72
2023/10/03 13:59:13;;;;;;;9.33;1.53;;;;;;;24.93;38.89;100506.41;6194296;28;20046;-72
2023/10/03 14:02:14;;;;;;;4.57;1.55;;;;;;;24.86;40.03;100498.28;6193570;28;20402;-72
2023/10/03 14:05:19;;;;;;;5.35;1.90;;;;;;;24.69;40.48;100505.56;6194281;28;20054;-72
2023/10/03 14:08:22;;;;;;;4.68;1.73;;;;;;;24.62;39.43;100501.91;6194797;28;20413;-72
2023/10/03 14:11:26;;;;;;;4.50;1.73;;;;;;;24.39;39.23;100507.16;6195311;28;20133;-72
2023/10/03 14:14:28;;;;;;;4.20;1.95;;;;;;;24.44;39.49;100494.13;6194247;28;20046;-72
2023/10/03 14:17:29;;;;;;;8.40;2.42;;;;;;;24.42;41.32;100498.81;6194901;28;20108;-71
2023/10/03 14:20:32;;;;;;;2.75;1.48;;;;;;;24.32;39.52;100487.53;6195142;28;20061;-72
2023/10/03 14:23:33;;;;;;;3.28;1.75;;;;;;;24.28;39.25;100491.53;6193559;28;20137;-71
2023/10/03 14:26:34;;;;;;;5.65;1.58;;;;;;;24.26;40.04;100488.22;6195000;28;20061;-71
2023/10/03 14:29:35;;;;;;;5.00;1.77;;;;;;;24.33;39.97;100481.16;6193456;28;20060;-72
2023/10/03 14:32:42;;;;;;;3.67;1.70;;;;;;;24.36;40.65;100480.84;6193586;28;20054;-72
2023/10/03 14:35:45;;;;;;;8.85;2.08;;;;;;;24.25;39.91;100487.34;6194738;28;20085;-72
2023/10/03 14:38:46;;;;;;;6.13;2.00;;;;;;;24.20;39.93;100484.41;6194674;28;20051;-72
2023/10/03 14:41:50;;;;;;;5.25;1.65;;;;;;;24.23;39.91;100485.88;6194626;28;20082;-72